Time;durP1;ratioP1;P1;durP2;ratioP2;P2;SDS_P1;SDS_P2;PMS_P1;PMS_P2;Temp;Humidity;BMP_temperature;BMP_pressure;BME280_temperature;BME280_humidity;BME280_pressure;Samples;Min_cycle;Max_cycle;Signal;HPM_P1;HPM_P2
2020/12/14 05:18:19;;;;;;;10.83;7.13;;;1.30;99.90;;;;;;5788905;23;739719;-69
2020/12/14 05:20:55;;;;;;;10.70;7.13;;;1.30;99.90;;;;;;4895810;29;20040;-69
2020/12/14 05:23:21;;;;;;;11.90;8.15;;;1.30;99.90;;;;;;4896539;29;20028;-70
2020/12/14 05:25:47;;;;;;;11.13;8.02;;;1.30;99.90;;;;;;4896756;29;20551;-70
2020/12/14 05:28:16;;;;;;;10.90;7.18;;;1.30;99.90;;;;;;4896435;29;20120;-70
2020/12/14 05:30:50;;;;;;;12.60;7.30;;;1.30;99.90;;;;;;4896845;29;20033;-69
2020/12/14 05:33:23;;;;;;;13.05;7.80;;;1.30;99.90;;;;;;4896491;29;20028;-76
2020/12/14 05:35:51;;;;;;;13.00;8.25;;;1.30;99.90;;;;;;4896587;29;20499;-78
2020/12/14 05:38:26;;;;;;;13.45;7.75;;;1.30;99.90;;;;;;4896442;29;20096;-76
2020/12/14 05:40:56;;;;;;;19.75;8.90;;;1.30;99.90;;;;;;4896586;29;20436;-76
2020/12/14 05:43:24;;;;;;;16.23;8.75;;;1.40;99.90;;;;;;4895337;29;20029;-74
2020/12/14 05:45:52;;;;;;;13.30;7.75;;;1.70;99.90;;;;;;4896425;29;20502;-75
2020/12/14 05:48:32;;;;;;;11.68;7.70;;;1.60;99.90;;;;;;4896362;29;20032;-77
2020/12/14 05:51:03;;;;;;;14.32;7.75;;;1.50;99.90;;;;;;4896222;29;20047;-75
2020/12/14 05:53:39;;;;;;;15.55;8.27;;;1.40;99.90;;;;;;4895855;29;20025;-76
2020/12/14 05:56:09;;;;;;;12.80;7.43;;;1.40;99.90;;;;;;4883190;29;20021;-74
2020/12/14 05:58:39;;;;;;;16.00;9.32;;;1.20;99.90;;;;;;4886533;29;20048;-77
2020/12/14 06:01:07;;;;;;;12.23;8.10;;;1.30;99.90;;;;;;4894088;29;20453;-77
2020/12/14 06:03:33;;;;;;;14.23;9.07;;;1.30;99.90;;;;;;4892841;29;20055;-77
2020/12/14 06:06:04;;;;;;;14.70;8.95;;;1.20;99.90;;;;;;4889328;29;20036;-76
2020/12/14 06:08:45;;;;;;;15.68;9.48;;;1.20;99.90;;;;;;4888893;29;20033;-76
2020/12/14 06:11:11;;;;;;;;;;;1.30;99.90;;;;;;4894151;29;20115;-77
2020/12/14 06:13:54;;;;;;;13.43;7.78;;;1.20;99.90;;;;;;4897832;29;19956;-76
2020/12/14 06:16:22;;;;;;;16.10;9.30;;;1.20;99.90;;;;;;4896684;29;20033;-74
2020/12/14 06:18:48;;;;;;;16.80;9.20;;;1.20;99.90;;;;;;4886928;29;20048;-85
2020/12/14 06:21:37;;;;;;;12.65;8.23;;;1.10;99.90;;;;;;4880333;29;20119;-83
2020/12/14 06:24:05;;;;;;;15.68;8.45;;;1.10;99.90;;;;;;4881129;29;20032;-79
2020/12/14 06:26:36;;;;;;;18.42;8.93;;;1.10;99.90;;;;;;4880788;29;20035;-74
2020/12/14 06:29:02;;;;;;;19.67;9.23;;;1.00;99.90;;;;;;4881244;29;20048;-78
2020/12/14 06:31:35;;;;;;;21.80;12.35;;;1.00;99.90;;;;;;4880699;29;20049;-79
2020/12/14 06:34:03;;;;;;;14.68;9.00;;;1.10;99.90;;;;;;4881021;29;20021;-79
2020/12/14 06:36:40;;;;;;;20.38;9.63;;;1.20;99.90;;;;;;4881176;29;20029;-79
2020/12/14 06:39:40;;;;;;;17.50;9.55;;;1.20;99.90;;;;;;4881162;29;20017;-79
2020/12/14 06:42:09;;;;;;;16.43;9.40;;;1.10;99.90;;;;;;4880791;29;20489;-79
2020/12/14 06:44:56;;;;;;;16.65;8.73;;;1.20;99.90;;;;;;4880966;29;20437;-79
2020/12/14 06:47:22;;;;;;;14.80;9.18;;;1.10;99.90;;;;;;4879228;29;20029;-79
2020/12/14 06:49:48;;;;;;;19.75;10.20;;;1.10;99.90;;;;;;4880613;29;20500;-79
2020/12/14 06:52:36;;;;;;;17.08;8.88;;;1.10;99.90;;;;;;4880529;29;20396;-79
2020/12/14 06:55:02;;;;;;;17.83;9.00;;;1.10;99.90;;;;;;4880744;29;20470;-79
2020/12/14 06:57:38;;;;;;;17.27;9.40;;;1.10;99.90;;;;;;4880537;29;20037;-76
2020/12/14 07:00:06;;;;;;;14.80;9.40;;;1.10;99.90;;;;;;4880489;29;20033;-78
2020/12/14 07:02:36;;;;;;;18.10;9.55;;;1.20;99.90;;;;;;4879335;29;20085;-74
2020/12/14 07:05:02;;;;;;;16.05;9.40;;;1.20;99.90;;;;;;4879892;29;20029;-75
2020/12/14 07:07:33;;;;;;;14.63;8.88;;;1.20;99.90;;;;;;4879609;29;20034;-79
2020/12/14 07:10:12;;;;;;;;;;;1.60;99.90;;;;;;4880687;29;20032;-80
2020/12/14 07:12:46;;;;;;;14.38;8.35;;;1.80;99.90;;;;;;4879842;29;19976;-79
2020/12/14 07:15:27;;;;;;;18.52;8.57;;;2.40;99.90;;;;;;4880309;29;20512;-76
2020/12/14 07:18:04;;;;;;;14.07;8.07;;;2.20;99.90;;;;;;4867621;29;20069;-78
2020/12/14 07:20:31;;;;;;;16.65;8.75;;;1.90;99.90;;;;;;4879922;29;20033;-79
2020/12/14 07:23:07;;;;;;;15.10;8.73;;;1.70;99.90;;;;;;4880104;29;20043;-75
2020/12/14 07:25:34;;;;;;;13.75;8.25;;;1.50;99.90;;;;;;4878604;29;20498;-75
2020/12/14 07:28:01;;;;;;;11.98;7.20;;;1.50;99.90;;;;;;4880113;29;20052;-75
2020/12/14 07:30:27;;;;;;;14.52;8.15;;;1.50;99.90;;;;;;4880109;29;20497;-75
2020/12/14 07:32:53;;;;;;;13.38;7.82;;;1.30;99.90;;;;;;4880061;29;20068;-71
2020/12/14 07:35:19;;;;;;;14.48;8.27;;;1.30;99.90;;;;;;4879352;29;20499;-75
2020/12/14 07:37:44;;;;;;;13.88;8.18;;;1.30;99.90;;;;;;4879223;29;20029;-77
2020/12/14 07:40:12;;;;;;;16.70;8.27;;;1.50;99.90;;;;;;4878661;29;20100;-86
2020/12/14 07:42:44;;;;;;;14.13;8.88;;;1.60;99.90;;;;;;4880497;29;20024;-82
2020/12/14 07:45:14;;;;;;;14.63;7.63;;;1.50;99.90;;;;;;4890124;29;20065;-86
2020/12/14 07:47:42;;;;;;;17.50;8.45;;;1.40;99.90;;;;;;4880292;29;20592;-83
2020/12/14 07:50:26;;;;;;;12.63;7.22;;;1.30;99.90;;;;;;4876326;29;20532;-74
2020/12/14 07:52:53;;;;;;;14.27;7.80;;;1.30;99.90;;;;;;4879946;29;20060;-78
2020/12/14 07:55:21;;;;;;;14.63;8.50;;;1.20;99.90;;;;;;4879600;29;20059;-79
2020/12/14 07:57:48;;;;;;;16.10;7.15;;;1.30;99.90;;;;;;4865048;29;20033;-80
2020/12/14 08:00:16;;;;;;;14.20;7.82;;;2.10;99.90;;;;;;4864903;29;20029;-80
2020/12/14 08:02:43;;;;;;;14.80;7.80;;;2.10;99.90;;;;;;4863058;29;20029;-80
2020/12/14 08:05:18;;;;;;;15.55;7.50;;;1.80;99.90;;;;;;4863320;29;20077;-81
2020/12/14 08:07:50;;;;;;;13.90;7.57;;;1.60;99.90;;;;;;4862672;29;20051;-80
2020/12/14 08:10:19;;;;;;;13.55;7.43;;;1.50;99.90;;;;;;4863326;29;20371;-80
2020/12/14 08:12:46;;;;;;;14.02;8.05;;;1.40;99.90;;;;;;4862858;29;20089;-80
2020/12/14 08:15:17;;;;;;;14.52;7.53;;;1.30;99.90;;;;;;4862391;29;20482;-80
2020/12/14 08:17:47;;;;;;;14.18;7.95;;;1.30;99.90;;;;;;4862301;29;20497;-80
2020/12/14 08:20:34;;;;;;;15.55;7.97;;;1.30;99.90;;;;;;4862361;29;20505;-80
2020/12/14 08:23:01;;;;;;;14.65;7.97;;;1.30;99.90;;;;;;4873507;29;20029;-80
2020/12/14 08:25:32;;;;;;;13.45;7.63;;;1.30;99.90;;;;;;4873048;29;20036;-80
2020/12/14 08:28:03;;;;;;;13.27;7.55;;;1.20;99.90;;;;;;4874107;29;20040;-80
2020/12/14 08:30:31;;;;;;;20.77;8.32;;;1.20;99.90;;;;;;4879072;29;20029;-80
2020/12/14 08:33:13;;;;;;;14.73;7.40;;;1.20;99.90;;;;;;4878800;29;20127;-80
2020/12/14 08:35:43;;;;;;;11.93;7.95;;;1.10;99.90;;;;;;4877625;29;20048;-80
2020/12/14 08:38:14;;;;;;;16.95;8.15;;;1.10;99.90;;;;;;4878851;29;20029;-80
2020/12/14 08:40:50;;;;;;;11.40;7.00;;;1.10;99.90;;;;;;4877644;29;20143;-80
2020/12/14 08:43:17;;;;;;;12.82;6.28;;;2.30;99.90;;;;;;4878805;29;20029;-80
2020/12/14 08:46:05;;;;;;;13.02;6.78;;;2.30;99.90;;;;;;4878838;29;20033;-81
2020/12/14 08:48:52;;;;;;;49.75;10.55;;;1.80;99.90;;;;;;4878770;29;20032;-83
2020/12/14 08:51:24;;;;;;;15.23;7.68;;;1.60;99.90;;;;;;4865478;29;20057;-83
2020/12/14 08:53:52;;;;;;;15.63;8.02;;;1.40;99.90;;;;;;4868525;29;20037;-77
2020/12/14 08:56:23;;;;;;;16.38;8.93;;;1.70;99.90;;;;;;4877412;29;20033;-76
2020/12/14 08:58:50;;;;;;;27.42;8.40;;;1.90;99.90;;;;;;4877741;29;20548;-72
2020/12/14 09:01:17;;;;;;;12.60;7.28;;;1.70;99.90;;;;;;4878291;29;20501;-72
2020/12/14 09:04:02;;;;;;;14.48;8.27;;;1.50;99.90;;;;;;4878251;29;20370;-72
2020/12/14 09:06:38;;;;;;;12.43;7.43;;;1.30;99.90;;;;;;4877806;29;20033;-73
2020/12/14 09:09:04;;;;;;;12.45;7.97;;;1.30;99.90;;;;;;4878004;29;20112;-79
2020/12/14 09:11:31;;;;;;;14.75;6.90;;;1.20;99.90;;;;;;4877523;29;20104;-76
2020/12/14 09:13:58;;;;;;;16.33;7.20;;;1.20;99.90;;;;;;4877918;29;20512;-77
2020/12/14 09:16:24;;;;;;;17.65;7.90;;;1.20;99.90;;;;;;4878130;29;20036;-74
2020/12/14 09:18:50;;;;;;;14.13;7.93;;;1.20;99.90;;;;;;4877821;29;20052;-75
2020/12/14 09:21:17;;;;;;;15.20;7.88;;;1.10;99.90;;;;;;4868584;29;20033;-76
2020/12/14 09:23:44;;;;;;;11.02;7.00;;;1.10;99.90;;;;;;4877933;29;20481;-74
2020/12/14 09:26:09;;;;;;;12.65;7.32;;;1.10;99.90;;;;;;4875400;29;20433;-82
2020/12/14 09:28:36;;;;;;;12.82;7.78;;;1.00;99.90;;;;;;4859753;29;20104;-80
2020/12/14 09:31:03;;;;;;;12.68;7.03;;;1.00;99.90;;;;;;4859348;29;20032;-82
2020/12/14 09:33:29;;;;;;;15.98;7.25;;;1.00;99.90;;;;;;4872504;29;20092;-77
2020/12/14 09:35:54;;;;;;;12.82;7.00;;;2.30;99.90;;;;;;4859257;29;20120;-84
2020/12/14 09:38:20;;;;;;;10.68;7.13;;;2.10;99.90;;;;;;4872221;29;20033;-82
2020/12/14 09:40:52;;;;;;;13.40;6.93;;;1.80;99.90;;;;;;4859309;29;20385;-82
2020/12/14 09:43:18;;;;;;;11.38;6.72;;;1.60;99.90;;;;;;4860460;29;20469;-83
2020/12/14 09:45:43;;;;;;;14.88;7.13;;;1.40;99.90;;;;;;4880032;29;20105;-87
2020/12/14 09:48:09;;;;;;;11.35;6.85;;;1.30;99.90;;;;;;4877427;29;20118;-77
2020/12/14 09:50:35;;;;;;;11.48;6.65;;;1.20;99.90;;;;;;4877315;29;20142;-77
2020/12/14 09:53:00;;;;;;;10.55;6.43;;;1.20;99.90;;;;;;4877475;29;20033;-69
2020/12/14 09:55:26;;;;;;;11.70;7.13;;;1.20;99.90;;;;;;4872593;29;20025;-69
2020/12/14 09:57:52;;;;;;;13.88;6.82;;;1.10;99.90;;;;;;4873100;29;20025;-69
2020/12/14 10:00:18;;;;;;;12.32;6.95;;;1.20;99.90;;;;;;4877444;29;20418;-69
2020/12/14 10:02:43;;;;;;;14.05;6.60;;;1.20;99.90;;;;;;4879476;29;20119;-71
2020/12/14 10:05:09;;;;;;;13.10;6.43;;;1.10;99.90;;;;;;4880845;29;20130;-71
2020/12/14 10:07:35;;;;;;;11.40;6.65;;;1.10;99.90;;;;;;4873232;29;20465;-71
2020/12/14 10:10:00;;;;;;;11.07;7.18;;;1.10;99.90;;;;;;4877066;29;20438;-71
2020/12/14 10:12:28;;;;;;;10.43;6.38;;;1.10;99.90;;;;;;4877497;29;20033;-71
2020/12/14 10:14:56;;;;;;;11.98;6.85;;;1.10;99.90;;;;;;4877355;29;20040;-71
2020/12/14 10:17:21;;;;;;;12.73;6.90;;;1.10;99.90;;;;;;4877205;29;20068;-71
2020/12/14 10:19:47;;;;;;;11.10;7.30;;;1.00;99.90;;;;;;4877028;29;20080;-71
2020/12/14 10:22:13;;;;;;;9.77;6.72;;;1.00;99.90;;;;;;4877684;29;20370;-71
2020/12/14 10:24:39;;;;;;;11.13;6.72;;;1.00;99.90;;;;;;4877017;29;20025;-71
2020/12/14 10:27:06;;;;;;;10.88;6.68;;;1.00;99.90;;;;;;4870903;29;20481;-71
2020/12/14 10:29:31;;;;;;;12.27;8.20;;;1.00;99.90;;;;;;4858898;29;20037;-71
2020/12/14 10:31:57;;;;;;;15.43;8.48;;;1.00;99.90;;;;;;4876593;29;20370;-71
2020/12/14 10:34:23;;;;;;;12.85;7.13;;;1.00;99.90;;;;;;4866767;29;20033;-71
2020/12/14 10:36:48;;;;;;;14.55;7.78;;;1.00;99.90;;;;;;4871622;29;20018;-71
2020/12/14 10:39:14;;;;;;;10.65;7.03;;;1.00;99.90;;;;;;4867447;29;20482;-72
2020/12/14 10:41:40;;;;;;;13.68;7.60;;;0.90;99.90;;;;;;4877244;29;20037;-71
2020/12/14 10:44:06;;;;;;;10.85;7.10;;;0.90;99.90;;;;;;4877166;29;20029;-72
2020/12/14 10:46:31;;;;;;;14.18;7.80;;;0.90;99.90;;;;;;4877423;29;20029;-71
2020/12/14 10:48:57;;;;;;;13.00;6.60;;;0.90;99.90;;;;;;4864127;29;20033;-73
2020/12/14 10:51:23;;;;;;;13.00;6.72;;;1.00;99.90;;;;;;4877148;29;20123;-71
2020/12/14 10:53:49;;;;;;;12.45;7.63;;;1.00;99.90;;;;;;4864195;29;20078;-71
2020/12/14 10:56:15;;;;;;;9.30;6.35;;;1.00;99.90;;;;;;4868721;29;20477;-71
2020/12/14 10:58:41;;;;;;;13.15;7.18;;;0.90;99.90;;;;;;4873786;29;20397;-71
2020/12/14 11:01:07;;;;;;;10.65;6.57;;;0.90;99.90;;;;;;4880326;29;20021;-71
2020/12/14 11:03:33;;;;;;;17.80;8.15;;;0.90;99.90;;;;;;4880360;29;20033;-71
2020/12/14 11:05:58;;;;;;;12.02;6.97;;;0.90;99.90;;;;;;4880106;29;20052;-71
2020/12/14 11:08:24;;;;;;;14.65;7.95;;;0.90;99.90;;;;;;4878990;29;20033;-70
2020/12/14 11:10:51;;;;;;;11.32;7.22;;;0.90;99.90;;;;;;4879853;29;20108;-71
2020/12/14 11:13:17;;;;;;;13.13;8.00;;;0.90;99.90;;;;;;4880463;29;20056;-71
2020/12/14 11:15:42;;;;;;;10.73;6.88;;;0.90;99.90;;;;;;4879868;29;20052;-71
2020/12/14 11:18:08;;;;;;;12.68;7.45;;;0.90;99.90;;;;;;4879489;29;20501;-71
2020/12/14 11:20:34;;;;;;;11.18;6.53;;;0.90;99.90;;;;;;4879950;29;20378;-71
2020/12/14 11:22:59;;;;;;;10.20;6.70;;;0.90;99.90;;;;;;4879811;29;20111;-71
2020/12/14 11:25:25;;;;;;;13.15;6.88;;;0.90;99.90;;;;;;4879966;29;20029;-71
2020/12/14 11:27:51;;;;;;;11.88;7.35;;;0.90;99.90;;;;;;4867462;29;20042;-71
2020/12/14 11:30:17;;;;;;;13.48;7.15;;;0.90;99.90;;;;;;4875155;29;20108;-71
2020/12/14 11:32:42;;;;;;;12.98;7.15;;;0.90;99.90;;;;;;4861516;29;20041;-71
2020/12/14 11:35:08;;;;;;;10.65;7.05;;;0.90;99.90;;;;;;4877455;29;20051;-71
2020/12/14 11:37:35;;;;;;;14.75;7.43;;;0.90;99.90;;;;;;4879973;29;20072;-70
2020/12/14 11:40:00;;;;;;;13.38;7.15;;;0.80;99.90;;;;;;4866618;29;20025;-71
2020/12/14 11:42:26;;;;;;;11.45;7.25;;;0.90;99.90;;;;;;4872610;29;20037;-70
2020/12/14 11:44:52;;;;;;;10.18;7.13;;;0.90;99.90;;;;;;4873664;29;20040;-70
2020/12/14 11:47:18;;;;;;;14.02;8.02;;;0.90;99.90;;;;;;4866419;29;20057;-74
2020/12/14 11:49:43;;;;;;;11.50;6.93;;;0.90;99.90;;;;;;4868606;29;20108;-72
2020/12/14 11:52:09;;;;;;;13.88;7.25;;;0.90;99.90;;;;;;4872297;29;20100;-71
2020/12/14 11:54:35;;;;;;;10.77;6.72;;;0.90;99.90;;;;;;4877741;29;20017;-71
2020/12/14 11:57:01;;;;;;;12.80;7.40;;;0.90;99.90;;;;;;4878109;29;20057;-71
2020/12/14 11:59:27;;;;;;;11.40;7.28;;;1.00;99.90;;;;;;4876358;29;20025;-71
2020/12/14 12:01:54;;;;;;;14.13;8.50;;;1.00;99.90;;;;;;4879258;29;20032;-71
2020/12/14 12:04:20;;;;;;;12.18;7.60;;;1.00;99.90;;;;;;4879374;29;20277;-71
2020/12/14 12:06:46;;;;;;;14.00;7.70;;;1.10;99.90;;;;;;4878988;29;20132;-71
2020/12/14 12:09:12;;;;;;;12.15;8.00;;;1.10;99.90;;;;;;4879212;29;20069;-71
2020/12/14 12:11:37;;;;;;;15.20;8.55;;;1.00;99.90;;;;;;4873208;29;20112;-71
2020/12/14 12:14:03;;;;;;;13.27;8.02;;;1.10;99.90;;;;;;4879236;29;20181;-71
2020/12/14 12:16:29;;;;;;;13.15;8.05;;;1.10;99.90;;;;;;4874244;29;20478;-71
2020/12/14 12:18:55;;;;;;;14.38;8.80;;;1.10;99.90;;;;;;4878695;29;20132;-71
2020/12/14 12:21:21;;;;;;;14.88;7.65;;;1.10;99.90;;;;;;4868874;29;20166;-70
2020/12/14 12:23:48;;;;;;;12.18;8.13;;;1.20;99.90;;;;;;4878810;29;20053;-70
2020/12/14 12:26:13;;;;;;;11.07;7.55;;;1.20;99.90;;;;;;4873833;29;20411;-71
2020/12/14 12:28:39;;;;;;;12.25;7.68;;;1.20;99.90;;;;;;4860155;29;20166;-71
2020/12/14 12:31:06;;;;;;;13.75;8.07;;;1.20;99.90;;;;;;4871521;29;20029;-71
2020/12/14 12:33:32;;;;;;;11.35;7.20;;;1.20;99.90;;;;;;4865513;29;20029;-71
2020/12/14 12:35:58;;;;;;;12.65;7.95;;;1.30;99.90;;;;;;4878979;29;20025;-69
2020/12/14 12:38:24;;;;;;;11.38;7.65;;;1.30;99.90;;;;;;4878614;29;20433;-72
2020/12/14 12:40:50;;;;;;;11.77;7.13;;;1.30;99.90;;;;;;4870908;29;20493;-76
2020/12/14 12:43:15;;;;;;;12.02;6.57;;;1.30;99.90;;;;;;4873420;29;20040;-73
2020/12/14 12:45:41;;;;;;;14.00;6.88;;;1.40;99.90;;;;;;4878516;29;20036;-71
2020/12/14 12:48:07;;;;;;;21.00;8.60;;;1.50;99.90;;;;;;4878904;29;20034;-73
2020/12/14 12:50:35;;;;;;;14.77;9.50;;;1.60;99.90;;;;;;4878341;29;20035;-74
2020/12/14 12:53:01;;;;;;;12.45;6.93;;;3.00;99.90;;;;;;4878835;29;20484;-75
2020/12/14 12:55:26;;;;;;;9.43;6.03;;;2.80;99.90;;;;;;4862764;29;20061;-75
2020/12/14 12:57:52;;;;;;;10.48;6.25;;;2.40;99.90;;;;;;4868185;29;20124;-75
2020/12/14 13:00:18;;;;;;;9.75;6.88;;;2.10;99.90;;;;;;4864478;29;20060;-75
2020/12/14 13:02:44;;;;;;;11.65;6.22;;;1.90;99.90;;;;;;4865930;29;20025;-75
2020/12/14 13:05:09;;;;;;;8.80;5.93;;;1.90;99.90;;;;;;4866560;29;20029;-75
2020/12/14 13:07:35;;;;;;;10.65;6.55;;;1.80;99.90;;;;;;4872477;29;20077;-75
2020/12/14 13:10:01;;;;;;;9.25;6.45;;;1.80;99.90;;;;;;4869648;29;20064;-74
2020/12/14 13:12:27;;;;;;;10.90;6.38;;;1.80;99.90;;;;;;4878155;29;20069;-75
2020/12/14 13:14:53;;;;;;;10.50;6.22;;;1.70;99.90;;;;;;4870396;29;20029;-75
2020/12/14 13:17:18;;;;;;;14.38;6.75;;;1.70;99.90;;;;;;4872447;29;20070;-75
2020/12/14 13:19:44;;;;;;;11.23;6.65;;;1.70;99.90;;;;;;4859309;29;20283;-76
2020/12/14 13:22:11;;;;;;;11.43;6.38;;;1.70;99.90;;;;;;4870693;29;20043;-70
2020/12/14 13:24:37;;;;;;;8.07;5.80;;;2.10;99.90;;;;;;4864526;29;20021;-79
2020/12/14 13:27:03;;;;;;;14.85;6.10;;;2.10;99.90;;;;;;4877860;29;20036;-77
2020/12/14 13:29:29;;;;;;;10.18;6.35;;;2.00;99.90;;;;;;4878306;29;20029;-77
2020/12/14 13:31:55;;;;;;;9.75;6.72;;;2.00;99.90;;;;;;4859743;29;20040;-73
2020/12/14 13:34:21;;;;;;;13.73;6.43;;;2.00;99.90;;;;;;4872426;29;20043;-74
2020/12/14 13:36:47;;;;;;;10.05;6.05;;;2.00;99.90;;;;;;4876656;29;20025;-73
2020/12/14 13:39:13;;;;;;;9.60;6.38;;;2.00;99.90;;;;;;4877126;29;20496;-73
2020/12/14 13:41:38;;;;;;;9.55;6.32;;;2.10;99.90;;;;;;4873666;29;20029;-73
2020/12/14 13:44:04;;;;;;;9.93;6.05;;;2.00;99.90;;;;;;4876638;29;20021;-74
2020/12/14 13:46:30;;;;;;;10.55;6.50;;;2.10;99.90;;;;;;4877055;29;20025;-73
2020/12/14 13:48:56;;;;;;;11.10;6.22;;;2.00;99.90;;;;;;4876969;29;20033;-73
2020/12/14 13:51:24;;;;;;;13.10;6.72;;;2.00;99.90;;;;;;4876705;29;20052;-73
2020/12/14 13:53:50;;;;;;;11.15;6.50;;;2.10;99.90;;;;;;4872996;29;20032;-73
2020/12/14 13:56:16;;;;;;;17.85;7.18;;;2.10;99.90;;;;;;4877317;29;20068;-74
2020/12/14 13:58:42;;;;;;;15.15;6.80;;;2.10;99.90;;;;;;4877423;29;20527;-74
2020/12/14 14:01:13;;;;;;;10.35;6.55;;;2.10;99.90;;;;;;4877235;29;20048;-74
2020/12/14 14:03:39;;;;;;;7.78;5.45;;;2.10;99.90;;;;;;4877326;29;20096;-74
2020/12/14 14:06:08;;;;;;;10.88;5.93;;;2.10;99.90;;;;;;4877864;29;20377;-74
2020/12/14 14:08:34;;;;;;;11.57;6.55;;;2.10;99.90;;;;;;4877532;29;20430;-74
2020/12/14 14:10:59;;;;;;;10.57;6.57;;;2.10;99.90;;;;;;4876569;29;20089;-73
2020/12/14 14:13:25;;;;;;;9.77;6.70;;;2.10;99.90;;;;;;4877104;29;20041;-73
2020/12/14 14:15:51;;;;;;;10.10;6.45;;;2.10;99.90;;;;;;4872735;29;20034;-73
2020/12/14 14:18:16;;;;;;;10.23;6.05;;;2.10;99.90;;;;;;4876885;29;20057;-73
2020/12/14 14:20:43;;;;;;;11.25;6.57;;;2.10;99.90;;;;;;4875126;29;20088;-73
2020/12/14 14:23:08;;;;;;;8.65;6.13;;;2.10;99.90;;;;;;4875065;29;20112;-73
2020/12/14 14:25:34;;;;;;;11.43;6.20;;;2.10;99.90;;;;;;4877029;29;20436;-73
2020/12/14 14:28:00;;;;;;;10.05;5.90;;;2.10;99.90;;;;;;4874746;29;20169;-73
2020/12/14 14:30:25;;;;;;;8.32;5.47;;;2.10;99.90;;;;;;4877361;29;20032;-73
2020/12/14 14:32:51;;;;;;;11.82;6.50;;;2.10;99.90;;;;;;4876952;29;20509;-75
2020/12/14 14:35:17;;;;;;;11.95;6.35;;;2.20;99.90;;;;;;4880221;29;20026;-73
2020/12/14 14:37:44;;;;;;;11.20;6.25;;;2.40;99.90;;;;;;4880345;29;20037;-73
2020/12/14 14:40:15;;;;;;;15.60;6.90;;;2.40;99.90;;;;;;4877927;29;20584;-73
2020/12/14 14:42:41;;;;;;;10.48;6.05;;;2.30;99.90;;;;;;4879787;29;20477;-73
2020/12/14 14:45:08;;;;;;;11.82;6.30;;;2.30;99.90;;;;;;4880404;29;20491;-73
2020/12/14 14:47:35;;;;;;;10.40;6.45;;;2.20;99.90;;;;;;4873428;29;20040;-73
2020/12/14 14:50:01;;;;;;;11.32;6.90;;;2.20;99.90;;;;;;4877744;29;20045;-73
2020/12/14 14:52:27;;;;;;;12.35;6.50;;;2.20;99.90;;;;;;4880539;29;20048;-73
2020/12/14 14:54:53;;;;;;;10.38;5.78;;;2.20;99.90;;;;;;4870121;29;20031;-73
2020/12/14 14:57:18;;;;;;;9.60;5.68;;;2.20;99.90;;;;;;4876448;29;20065;-73
2020/12/14 14:59:45;;;;;;;8.38;5.32;;;2.20;99.90;;;;;;4864840;29;20029;-73
2020/12/14 15:02:10;;;;;;;10.27;6.28;;;2.20;99.90;;;;;;4877436;29;20020;-74
2020/12/14 15:04:36;;;;;;;12.32;6.20;;;2.20;99.90;;;;;;4869347;29;20103;-78
2020/12/14 15:07:03;;;;;;;9.13;5.72;;;2.20;99.90;;;;;;4880899;29;20065;-77
2020/12/14 15:09:29;;;;;;;11.48;5.65;;;2.20;99.90;;;;;;4879869;29;20081;-76
2020/12/14 15:11:55;;;;;;;9.38;5.10;;;2.20;99.90;;;;;;4879082;29;20037;-77
2020/12/14 15:14:21;;;;;;;9.00;5.75;;;2.20;99.90;;;;;;4878591;29;20036;-77
2020/12/14 15:16:47;;;;;;;10.48;5.90;;;2.20;99.90;;;;;;4878403;29;20473;-76
2020/12/14 15:19:13;;;;;;;9.40;5.53;;;2.20;99.90;;;;;;4876997;29;20056;-76
2020/12/14 15:21:38;;;;;;;11.52;5.50;;;2.20;99.90;;;;;;4883671;29;20029;-77
2020/12/14 15:24:05;;;;;;;8.85;5.30;;;2.20;99.90;;;;;;4879394;29;20408;-75
2020/12/14 15:26:31;;;;;;;7.15;4.97;;;2.20;99.90;;;;;;4877709;29;20037;-76
2020/12/14 15:28:57;;;;;;;9.10;5.70;;;2.20;99.90;;;;;;4869050;29;20478;-76
2020/12/14 15:31:23;;;;;;;10.90;5.45;;;2.20;99.90;;;;;;4865933;29;20033;-76
2020/12/14 15:33:49;;;;;;;8.15;4.50;;;2.30;99.90;;;;;;4867514;29;20035;-76
2020/12/14 15:36:22;;;;;;;7.90;5.13;;;2.30;99.90;;;;;;4879915;29;20029;-76
2020/12/14 15:38:50;;;;;;;7.68;5.18;;;2.30;99.90;;;;;;4866678;29;20032;-76
2020/12/14 15:41:17;;;;;;;9.20;5.70;;;2.30;99.90;;;;;;4868859;29;20029;-76
2020/12/14 15:43:44;;;;;;;8.13;5.63;;;2.30;99.90;;;;;;4864832;29;20048;-76
2020/12/14 15:46:10;;;;;;;10.75;5.63;;;2.30;99.90;;;;;;4878761;29;20028;-76
2020/12/14 15:48:36;;;;;;;11.07;5.72;;;2.30;99.90;;;;;;4874048;29;20116;-75
2020/12/14 15:51:03;;;;;;;11.57;5.93;;;2.30;99.90;;;;;;4878721;29;20036;-76
2020/12/14 15:53:29;;;;;;;10.55;5.82;;;2.40;99.90;;;;;;4878945;29;20061;-75
2020/12/14 15:55:55;;;;;;;9.40;6.70;;;2.40;99.90;;;;;;4877720;29;20029;-75
2020/12/14 15:58:22;;;;;;;8.15;6.15;;;2.40;99.90;;;;;;4871447;29;20389;-75
2020/12/14 16:00:49;;;;;;;10.40;5.68;;;2.40;99.90;;;;;;4881167;29;20096;-76
2020/12/14 16:03:15;;;;;;;11.15;6.65;;;2.40;99.90;;;;;;4883265;29;20051;-75
2020/12/14 16:05:44;;;;;;;9.32;6.20;;;2.40;99.90;;;;;;4879073;29;20049;-76
2020/12/14 16:08:10;;;;;;;10.02;6.20;;;2.30;99.90;;;;;;4870688;29;20043;-78
2020/12/14 16:10:36;;;;;;;9.13;6.18;;;2.40;99.90;;;;;;4878681;29;20060;-79
2020/12/14 16:13:02;;;;;;;9.35;5.80;;;2.30;99.90;;;;;;4882292;29;20037;-77
2020/12/14 16:15:28;;;;;;;14.63;6.30;;;3.30;99.90;;;;;;4884335;29;20496;-77
2020/12/14 16:17:54;;;;;;;13.85;6.32;;;3.40;99.90;;;;;;4878661;29;20025;-76
2020/12/14 16:20:21;;;;;;;14.25;6.13;;;3.20;99.90;;;;;;4878676;29;20040;-78
2020/12/14 16:22:46;;;;;;;13.18;6.05;;;2.90;99.90;;;;;;4878715;29;20134;-75
2020/12/14 16:25:13;;;;;;;7.55;5.53;;;2.80;99.90;;;;;;4878980;29;20018;-85
2020/12/14 16:27:43;;;;;;;10.48;5.70;;;2.70;99.90;;;;;;4877065;29;20056;-86
2020/12/14 16:30:11;;;;;;;9.57;5.70;;;2.60;99.90;;;;;;4878850;29;20531;-77
2020/12/14 16:32:37;;;;;;;9.35;5.88;;;2.60;99.90;;;;;;4877391;29;20056;-77
2020/12/14 16:35:06;;;;;;;14.00;6.03;;;2.50;99.90;;;;;;4878587;29;20557;-80
2020/12/14 16:37:32;;;;;;;9.75;6.68;;;2.60;99.90;;;;;;4875880;29;20404;-75
2020/12/14 16:39:57;;;;;;;9.55;5.85;;;2.60;99.90;;;;;;4875974;29;20444;-73
2020/12/14 16:42:25;;;;;;;9.85;6.13;;;2.50;99.90;;;;;;4878020;29;20056;-74
2020/12/14 16:44:51;;;;;;;11.35;6.55;;;2.50;99.90;;;;;;4875107;29;20025;-74
2020/12/14 16:47:20;;;;;;;10.13;6.15;;;2.50;99.90;;;;;;4879296;29;20032;-73
2020/12/14 16:49:47;;;;;;;10.98;6.32;;;2.50;99.90;;;;;;4879781;29;20481;-74
2020/12/14 16:52:13;;;;;;;8.00;5.82;;;2.40;99.90;;;;;;4877842;29;20029;-75
2020/12/14 16:54:39;;;;;;;11.85;6.55;;;2.40;99.90;;;;;;4877400;29;20512;-73
2020/12/14 16:57:05;;;;;;;10.50;6.35;;;2.40;99.90;;;;;;4877865;29;20037;-72
2020/12/14 16:59:30;;;;;;;8.82;5.70;;;2.30;99.90;;;;;;4878269;29;20469;-72
2020/12/14 17:01:57;;;;;;;10.63;6.55;;;2.40;99.90;;;;;;4877974;29;20065;-72
2020/12/14 17:04:28;;;;;;;8.20;5.60;;;2.40;99.90;;;;;;4878218;29;20029;-72
2020/12/14 17:07:03;;;;;;;10.40;6.50;;;2.30;99.90;;;;;;4871141;29;20025;-72
2020/12/14 17:09:29;;;;;;;10.73;6.55;;;2.30;99.90;;;;;;4861423;29;20108;-72
2020/12/14 17:11:55;;;;;;;7.65;5.78;;;2.30;99.90;;;;;;4860664;29;20153;-73
2020/12/14 17:14:21;;;;;;;10.23;6.32;;;2.30;99.90;;;;;;4862198;29;20355;-72
2020/12/14 17:16:47;;;;;;;9.85;5.57;;;2.30;99.90;;;;;;4860162;29;20025;-73
2020/12/14 17:19:14;;;;;;;11.10;6.28;;;2.30;99.90;;;;;;4872248;29;20124;-73
2020/12/14 17:21:41;;;;;;;15.48;6.88;;;2.20;99.90;;;;;;4877719;29;20029;-73
2020/12/14 17:24:07;;;;;;;10.57;6.35;;;2.20;99.90;;;;;;4877995;29;20025;-73
2020/12/14 17:26:37;;;;;;;11.15;5.80;;;2.20;99.90;;;;;;4877968;29;20021;-73
2020/12/14 17:29:03;;;;;;;10.10;5.80;;;2.20;99.90;;;;;;4877971;29;20442;-73
2020/12/14 17:31:29;;;;;;;10.68;5.93;;;2.20;99.90;;;;;;4877656;29;20041;-73
2020/12/14 17:33:58;;;;;;;11.20;6.35;;;2.20;99.90;;;;;;4877844;29;20063;-73
2020/12/14 17:36:24;;;;;;;11.27;6.63;;;2.20;99.90;;;;;;4877723;29;20418;-72
2020/12/14 17:38:50;;;;;;;11.90;6.65;;;2.20;99.90;;;;;;4877583;29;20041;-73
2020/12/14 17:41:16;;;;;;;11.75;5.95;;;2.20;99.90;;;;;;4877544;29;20504;-73
2020/12/14 17:43:42;;;;;;;72.28;37.58;;;2.20;99.90;;;;;;4877619;29;20029;-75
2020/12/14 17:46:08;;;;;;;20.35;12.10;;;2.10;99.90;;;;;;4877643;29;20029;-73
2020/12/14 17:48:34;;;;;;;8.40;6.25;;;2.10;99.90;;;;;;4877271;29;20040;-74
2020/12/14 17:51:01;;;;;;;10.82;5.95;;;2.10;99.90;;;;;;4875729;29;20025;-73
2020/12/14 17:53:27;;;;;;;14.02;7.72;;;2.10;99.90;;;;;;4875798;29;20037;-73
2020/12/14 17:55:53;;;;;;;11.43;6.40;;;2.10;99.90;;;;;;4875033;29;20021;-73
2020/12/14 17:58:18;;;;;;;11.35;7.05;;;2.10;99.90;;;;;;4877140;29;20058;-72
2020/12/14 18:00:45;;;;;;;12.55;6.53;;;2.10;99.90;;;;;;4877295;29;20040;-73
2020/12/14 18:03:11;;;;;;;9.63;6.30;;;2.10;99.90;;;;;;4877451;29;20545;-74
2020/12/14 18:05:38;;;;;;;8.88;5.72;;;2.10;99.90;;;;;;4877834;29;20063;-73
2020/12/14 18:08:04;;;;;;;10.23;6.25;;;2.00;99.90;;;;;;4877459;29;20513;-72